createdAt,value
2019-03-23T00:01:04.961Z,28.47
2019-03-23T00:03:36.245Z,28.98
2019-03-23T00:06:07.534Z,27.80
2019-03-23T00:08:38.880Z,29.12
2019-03-23T00:11:10.531Z,27.67
2019-03-23T00:13:41.893Z,26.75
2019-03-23T00:16:13.192Z,27.95
2019-03-23T00:18:44.483Z,29.00
2019-03-23T00:21:15.739Z,29.13
2019-03-23T00:23:47.045Z,29.25
2019-03-23T00:26:18.356Z,28.45
2019-03-23T00:28:49.641Z,29.65
2019-03-23T00:31:20.980Z,28.40
2019-03-23T00:33:53.008Z,28.32
2019-03-23T00:36:24.613Z,29.98
2019-03-23T00:38:55.866Z,29.00
2019-03-23T00:41:27.115Z,29.23
2019-03-23T00:43:58.429Z,28.87
2019-03-23T00:46:30.105Z,28.50
2019-03-23T00:49:01.391Z,30.45
2019-03-23T00:51:32.630Z,30.03
2019-03-23T00:54:04.317Z,30.15
2019-03-23T00:56:35.575Z,30.23
2019-03-23T00:59:06.868Z,31.80
2019-03-23T01:01:38.494Z,30.35
2019-03-23T01:04:09.765Z,32.23
2019-03-23T01:06:51.591Z,32.15
2019-03-23T01:09:14.379Z,31.62
2019-03-23T01:11:45.656Z,31.33
2019-03-23T01:14:17.030Z,31.35
2019-03-23T01:16:48.704Z,33.87
2019-03-23T01:19:19.982Z,34.65
2019-03-23T01:21:51.368Z,41.53
2019-03-23T01:24:22.676Z,44.48
2019-03-23T01:26:53.979Z,58.83
2019-03-23T01:29:25.249Z,62.90
2019-03-23T01:31:56.609Z,62.85
2019-03-23T01:34:27.885Z,63.13
2019-03-23T01:37:02.935Z,62.45
2019-03-23T01:39:32.411Z,63.85
2019-03-23T01:42:04.157Z,65.55
2019-03-23T01:44:35.772Z,65.87
2019-03-23T01:47:07.095Z,66.60
2019-03-23T01:49:39.345Z,70.87
2019-03-23T01:52:10.617Z,69.58
2019-03-23T01:54:41.887Z,68.87
2019-03-23T01:57:13.197Z,70.72
2019-03-23T01:59:44.615Z,73.33
2019-03-23T02:02:15.861Z,75.62
2019-03-23T02:04:47.514Z,75.80
2019-03-23T02:07:19.150Z,73.28
2019-03-23T02:09:50.426Z,76.10
2019-03-23T02:12:21.659Z,79.73
2019-03-23T02:14:53.234Z,78.47
2019-03-23T02:17:25.057Z,78.92
2019-03-23T02:19:56.605Z,85.47
2019-03-23T02:22:28.500Z,85.10
2019-03-23T02:24:59.873Z,87.57
2019-03-23T02:27:31.154Z,91.17
2019-03-23T02:30:02.434Z,93.23
2019-03-23T02:32:34.304Z,92.70
2019-03-23T02:35:06.657Z,94.58
2019-03-23T02:37:38.328Z,95.25
2019-03-23T02:40:10.633Z,97.55
2019-03-23T02:42:42.244Z,99.92
2019-03-23T02:45:13.985Z,98.58
2019-03-23T02:47:45.415Z,98.62
2019-03-23T02:50:17.058Z,96.40
2019-03-23T02:52:48.362Z,100.42
2019-03-23T02:55:20.034Z,103.22
2019-03-23T02:57:51.342Z,103.02
2019-03-23T03:00:22.607Z,102.65
2019-03-23T03:02:53.877Z,99.50
2019-03-23T03:05:25.252Z,104.60
2019-03-23T03:07:56.560Z,103.53
2019-03-23T03:10:42.326Z,100.42
2019-03-23T03:13:13.615Z,102.00
2019-03-23T03:15:45.472Z,102.45
2019-03-23T03:18:16.838Z,102.22
2019-03-23T03:20:48.160Z,104.95
2019-03-23T03:23:19.809Z,106.97
2019-03-23T03:25:51.393Z,105.47
2019-03-23T03:28:22.758Z,106.17
2019-03-23T03:30:54.056Z,106.63
2019-03-23T03:33:25.398Z,104.12
2019-03-23T03:35:56.722Z,105.37
2019-03-23T03:38:27.955Z,105.10
2019-03-23T03:40:59.567Z,106.85
2019-03-23T03:43:30.919Z,102.82
2019-03-23T03:46:02.237Z,99.67
2019-03-23T03:48:33.561Z,101.30
2019-03-23T03:51:05.228Z,103.42
2019-03-23T03:53:36.809Z,98.67
2019-03-23T03:56:08.390Z,103.67
2019-03-23T03:58:39.677Z,104.50
2019-03-23T04:01:10.939Z,101.53
2019-03-23T04:03:42.307Z,105.20
2019-03-23T04:06:13.589Z,104.23
2019-03-23T04:08:44.966Z,105.52
2019-03-23T04:11:16.310Z,102.90
2019-03-23T04:13:47.598Z,106.80
2019-03-23T04:16:18.921Z,102.92
2019-03-23T04:18:50.200Z,105.60
2019-03-23T04:21:22.775Z,103.78
2019-03-23T04:23:54.054Z,106.75
2019-03-23T04:26:25.683Z,106.33
2019-03-23T04:28:57.467Z,101.15
2019-03-23T04:31:28.815Z,102.75
2019-03-23T04:34:00.129Z,103.00
2019-03-23T04:36:31.411Z,103.02
2019-03-23T04:39:03.513Z,101.78
2019-03-23T04:41:34.851Z,103.32
2019-03-23T04:44:06.142Z,104.20
2019-03-23T04:46:37.443Z,107.60
2019-03-23T04:49:08.977Z,108.07
2019-03-23T04:51:41.373Z,107.95
2019-03-23T04:54:12.643Z,102.47
2019-03-23T04:56:43.922Z,101.90
2019-03-23T04:59:15.762Z,104.80
2019-03-23T05:01:47.055Z,107.27
2019-03-23T05:04:18.401Z,105.63
2019-03-23T05:06:49.981Z,103.67
2019-03-23T05:09:21.331Z,107.43
2019-03-23T05:11:52.621Z,103.87
2019-03-23T05:14:23.884Z,103.20
2019-03-23T05:16:55.187Z,100.75
2019-03-23T05:19:26.744Z,103.73
2019-03-23T05:21:58.309Z,101.85
2019-03-23T05:24:29.954Z,101.92
2019-03-23T05:27:01.215Z,104.47
2019-03-23T05:29:32.579Z,105.78
2019-03-23T05:32:04.508Z,104.15
2019-03-23T05:34:35.794Z,103.15
2019-03-23T05:37:07.094Z,106.90
2019-03-23T05:39:38.381Z,101.87
2019-03-23T05:42:09.765Z,108.47
2019-03-23T05:44:41.052Z,104.47
2019-03-23T05:47:12.423Z,104.45
2019-03-23T05:49:43.713Z,108.78
2019-03-23T05:52:15.677Z,108.03
2019-03-23T05:54:47.010Z,108.40
2019-03-23T05:57:19.864Z,107.45
2019-03-23T05:59:51.410Z,105.05
2019-03-23T06:02:22.706Z,104.92
2019-03-23T06:04:54.302Z,103.92
2019-03-23T06:07:25.933Z,108.50
2019-03-23T06:09:57.242Z,102.90
2019-03-23T06:12:28.517Z,106.22
2019-03-23T06:15:00.123Z,105.43
2019-03-23T06:17:32.143Z,106.55
2019-03-23T06:20:04.682Z,99.70
2019-03-23T06:22:36.189Z,98.90
2019-03-23T06:25:07.840Z,95.32
2019-03-23T06:27:39.155Z,98.15
2019-03-23T06:30:11.621Z,99.65
2019-03-23T06:32:43.345Z,97.70
2019-03-23T06:35:15.063Z,95.67
2019-03-23T06:37:46.314Z,94.28
2019-03-23T06:40:17.648Z,94.40
2019-03-23T06:42:59.106Z,94.50
2019-03-23T06:45:22.441Z,95.28
2019-03-23T06:47:53.707Z,89.00
2019-03-23T06:50:25.281Z,93.07
2019-03-23T06:52:56.588Z,93.27
2019-03-23T06:55:28.037Z,88.52
2019-03-23T06:57:59.314Z,87.35
2019-03-23T07:00:30.547Z,90.40
2019-03-23T07:03:02.141Z,83.10
2019-03-23T07:05:33.690Z,80.93
2019-03-23T07:08:04.981Z,82.20
2019-03-23T07:10:36.745Z,81.55
2019-03-23T07:13:09.938Z,80.87
2019-03-23T07:15:41.229Z,79.90
2019-03-23T07:18:12.483Z,77.32
2019-03-23T07:20:44.165Z,76.50
2019-03-23T07:23:15.435Z,79.05
2019-03-23T07:25:46.737Z,75.25
2019-03-23T07:28:18.070Z,73.42
2019-03-23T07:30:49.670Z,74.40
2019-03-23T07:33:21.182Z,76.90
2019-03-23T07:35:52.827Z,76.62
2019-03-23T07:38:24.392Z,73.20
2019-03-23T07:40:55.968Z,76.28
2019-03-23T07:43:27.851Z,73.65
2019-03-23T07:45:59.114Z,75.47
2019-03-23T07:48:30.818Z,74.55
2019-03-23T07:51:02.080Z,71.92
2019-03-23T07:53:33.419Z,71.85
2019-03-23T07:56:04.741Z,70.50
2019-03-23T07:58:36.034Z,75.87
2019-03-23T08:01:08.085Z,72.92
2019-03-23T08:03:39.377Z,73.10
2019-03-23T08:06:10.657Z,72.08
2019-03-23T08:08:41.923Z,71.42
2019-03-23T08:11:13.185Z,71.20
2019-03-23T08:13:44.494Z,71.15
2019-03-23T08:16:15.836Z,71.75
2019-03-23T08:18:48.270Z,72.15
2019-03-23T08:21:19.890Z,74.15
2019-03-23T08:23:51.864Z,71.45
2019-03-23T08:26:24.599Z,70.27
2019-03-23T08:28:56.174Z,69.70
2019-03-23T08:31:28.782Z,67.07
2019-03-23T08:34:00.213Z,71.25
2019-03-23T08:36:31.481Z,68.63
2019-03-23T08:39:03.039Z,72.27
2019-03-23T08:41:34.678Z,69.15
2019-03-23T08:44:06.054Z,70.42
2019-03-23T08:46:37.362Z,71.40
2019-03-23T08:49:09.944Z,68.27
2019-03-23T08:51:41.689Z,67.80
2019-03-23T08:54:13.003Z,66.37
2019-03-23T08:56:44.317Z,67.40
2019-03-23T08:59:16.200Z,65.92
2019-03-23T09:01:47.802Z,64.82
2019-03-23T09:04:20.173Z,62.10
2019-03-23T09:06:52.405Z,61.48
2019-03-23T09:09:24.003Z,63.65
2019-03-23T09:11:55.284Z,61.73
2019-03-23T09:14:26.821Z,60.30
2019-03-23T09:16:58.084Z,62.08
2019-03-23T09:19:29.874Z,58.87
2019-03-23T09:22:01.162Z,60.10
2019-03-23T09:24:32.743Z,59.47
2019-03-23T09:27:04.108Z,60.90
2019-03-23T09:29:35.368Z,60.75
2019-03-23T09:32:06.933Z,58.13
2019-03-23T09:34:38.245Z,56.77
2019-03-23T09:37:09.575Z,58.35
2019-03-23T09:39:40.852Z,56.13
2019-03-23T09:42:12.402Z,57.35
2019-03-23T09:44:43.675Z,54.10
2019-03-23T09:47:15.591Z,55.83
2019-03-23T09:49:47.236Z,54.65
2019-03-23T09:52:18.545Z,56.20
2019-03-23T09:54:49.807Z,53.98
2019-03-23T09:57:21.466Z,55.63
2019-03-23T09:59:52.768Z,55.28
2019-03-23T10:02:24.013Z,47.43
2019-03-23T10:04:55.296Z,17.10
2019-03-23T10:07:26.545Z,20.97
2019-03-23T10:09:58.565Z,23.00
2019-03-23T10:12:29.833Z,28.20
2019-03-23T10:15:01.102Z,29.72
2019-03-23T10:17:32.365Z,29.00
2019-03-23T10:20:04.025Z,28.52
2019-03-23T10:22:35.316Z,46.63
2019-03-23T10:25:06.964Z,47.48
2019-03-23T10:27:38.610Z,49.10
2019-03-23T10:30:11.218Z,51.08
2019-03-23T10:32:42.621Z,52.98
2019-03-23T10:35:13.989Z,50.50
2019-03-23T10:37:45.620Z,52.67
2019-03-23T10:40:17.192Z,52.50
2019-03-23T10:42:48.511Z,49.88
2019-03-23T10:45:19.878Z,51.02
2019-03-23T10:47:51.297Z,52.62
2019-03-23T10:50:22.786Z,52.80
2019-03-23T10:52:54.051Z,52.53
2019-03-23T10:55:25.331Z,52.40
2019-03-23T10:57:57.223Z,51.77
2019-03-23T11:00:28.488Z,51.08
2019-03-23T11:02:59.783Z,50.83
2019-03-23T11:05:31.229Z,51.48
2019-03-23T11:08:02.816Z,48.68
2019-03-23T11:10:41.594Z,50.15
2019-03-23T11:13:07.359Z,49.30
2019-03-23T11:15:38.644Z,50.20
2019-03-23T11:18:09.916Z,49.00
2019-03-23T11:20:41.220Z,50.58
2019-03-23T11:23:12.503Z,50.52
2019-03-23T11:25:43.888Z,51.60
2019-03-23T11:28:16.045Z,51.83
2019-03-23T11:30:47.316Z,53.10
2019-03-23T11:33:18.580Z,53.87
2019-03-23T11:35:57.404Z,51.10
2019-03-23T11:38:22.829Z,51.50
2019-03-23T11:40:55.366Z,49.98
2019-03-23T11:43:26.731Z,51.70
2019-03-23T11:45:58.059Z,52.67
2019-03-23T11:48:29.869Z,49.73
2019-03-23T11:51:01.136Z,49.48
2019-03-23T11:53:32.399Z,49.17
2019-03-23T11:56:04.482Z,48.90
2019-03-23T11:58:35.820Z,51.23
2019-03-23T12:01:07.461Z,50.45
2019-03-23T12:03:38.830Z,50.95
2019-03-23T12:06:10.209Z,49.23
2019-03-23T12:08:41.484Z,50.88
2019-03-23T12:11:12.798Z,50.73
2019-03-23T12:13:44.118Z,48.60
2019-03-23T12:16:15.454Z,49.10
2019-03-23T12:18:47.086Z,47.17
2019-03-23T12:21:18.461Z,48.02
2019-03-23T12:23:49.756Z,47.70
2019-03-23T12:26:21.356Z,49.77
2019-03-23T12:28:52.650Z,48.70
2019-03-23T12:31:23.947Z,47.93
2019-03-23T12:33:56.274Z,49.70
2019-03-23T12:36:27.887Z,48.75
2019-03-23T12:38:59.231Z,47.13
2019-03-23T12:41:30.499Z,49.60
2019-03-23T12:44:01.788Z,48.78
2019-03-23T12:46:33.284Z,48.08
2019-03-23T12:49:04.740Z,47.62
2019-03-23T12:51:35.994Z,46.73
2019-03-23T12:54:07.657Z,48.50
2019-03-23T12:56:38.925Z,48.75
2019-03-23T12:59:10.226Z,50.13
2019-03-23T13:01:41.948Z,50.00
2019-03-23T13:04:14.558Z,49.60
2019-03-23T13:06:45.857Z,50.52
2019-03-23T13:09:17.773Z,50.52
2019-03-23T13:11:49.061Z,49.75
2019-03-23T13:14:20.662Z,50.43
2019-03-23T13:16:51.955Z,49.27
2019-03-23T13:19:23.246Z,50.20
2019-03-23T13:21:54.882Z,49.33
2019-03-23T13:24:26.127Z,49.85
2019-03-23T13:26:57.644Z,47.98
2019-03-23T13:29:28.930Z,47.40
2019-03-23T13:32:00.267Z,47.90
2019-03-23T13:34:31.579Z,47.08
2019-03-23T13:37:02.857Z,47.98
2019-03-23T13:39:34.116Z,47.30
2019-03-23T13:42:05.743Z,47.87
2019-03-23T13:44:37.037Z,48.85
2019-03-23T13:47:08.325Z,48.20
2019-03-23T13:49:39.604Z,48.90
2019-03-23T13:52:11.219Z,47.50
2019-03-23T13:54:42.947Z,49.23
2019-03-23T13:57:14.209Z,48.08
2019-03-23T13:59:45.466Z,49.48
2019-03-23T14:02:16.741Z,48.50
2019-03-23T14:04:50.183Z,49.35
2019-03-23T14:07:21.051Z,49.73
2019-03-23T14:09:52.371Z,47.35
2019-03-23T14:12:23.642Z,47.20
2019-03-23T14:14:55.158Z,47.55
2019-03-23T14:17:26.717Z,48.90
2019-03-23T14:19:58.343Z,49.05
2019-03-23T14:22:29.632Z,48.02
2019-03-23T14:25:00.921Z,47.65
2019-03-23T14:27:32.238Z,48.85
2019-03-23T14:30:03.797Z,49.18
2019-03-23T14:32:35.076Z,48.85
2019-03-23T14:35:07.351Z,49.48
2019-03-23T14:37:38.827Z,49.27
2019-03-23T14:40:10.262Z,49.42
2019-03-23T14:42:41.557Z,49.47
2019-03-23T14:45:12.981Z,48.95
2019-03-23T14:47:44.326Z,48.60
2019-03-23T14:50:15.674Z,48.25
2019-03-23T14:52:46.934Z,47.58
2019-03-23T14:55:19.353Z,48.17
2019-03-23T14:57:50.670Z,48.38
2019-03-23T15:00:30.495Z,48.48
2019-03-23T15:03:01.841Z,48.42
2019-03-23T15:05:33.138Z,49.77
2019-03-23T15:08:04.734Z,49.98
2019-03-23T15:10:36.008Z,53.43
2019-03-23T15:13:07.596Z,51.90
2019-03-23T15:15:38.897Z,50.63
2019-03-23T15:18:10.277Z,48.80
2019-03-23T15:20:42.031Z,49.70
2019-03-23T15:23:13.731Z,49.33
2019-03-23T15:25:45.053Z,50.40
2019-03-23T15:28:16.350Z,50.38
2019-03-23T15:30:47.646Z,50.25
2019-03-23T15:33:19.163Z,50.12
2019-03-23T15:35:50.445Z,51.58
2019-03-23T15:38:22.758Z,50.12
2019-03-23T15:40:54.678Z,50.52
2019-03-23T15:43:26.025Z,50.35
2019-03-23T15:45:57.569Z,49.88
2019-03-23T15:48:29.128Z,50.92
2019-03-23T15:51:00.748Z,50.55
2019-03-23T15:53:32.082Z,51.80
2019-03-23T15:56:04.764Z,51.58
2019-03-23T15:58:36.014Z,51.77
2019-03-23T16:01:07.424Z,51.07
2019-03-23T16:03:38.714Z,52.73
2019-03-23T16:06:10.703Z,51.40
2019-03-23T16:08:42.049Z,52.03
2019-03-23T16:11:13.334Z,52.30
2019-03-23T16:13:44.646Z,51.50
2019-03-23T16:16:15.978Z,52.40
2019-03-23T16:18:47.245Z,52.40
2019-03-23T16:21:18.553Z,52.75
2019-03-23T16:23:49.877Z,52.65
2019-03-23T16:26:21.519Z,53.08
2019-03-23T16:28:52.823Z,53.68
2019-03-23T16:31:24.116Z,54.83
2019-03-23T16:33:55.357Z,55.20
2019-03-23T16:36:26.648Z,54.63
2019-03-23T16:38:57.931Z,55.45
2019-03-23T16:41:29.260Z,55.63
2019-03-23T16:44:00.942Z,56.58
2019-03-23T16:46:32.213Z,57.08
2019-03-23T16:49:03.555Z,58.25
2019-03-23T16:51:34.894Z,56.42
2019-03-23T16:54:06.286Z,55.65
2019-03-23T16:56:37.930Z,55.75
2019-03-23T16:59:09.198Z,54.03
2019-03-23T17:01:41.323Z,54.73
2019-03-23T17:04:12.666Z,55.57
2019-03-23T17:06:46.666Z,55.75
2019-03-23T17:09:17.237Z,55.78
2019-03-23T17:11:48.848Z,56.28
2019-03-23T17:14:20.410Z,57.43
2019-03-23T17:16:51.813Z,57.43
2019-03-23T17:19:23.085Z,56.97
2019-03-23T17:21:54.341Z,58.08
2019-03-23T17:24:25.699Z,57.20
2019-03-23T17:26:56.977Z,57.90
2019-03-23T17:29:28.232Z,59.63
2019-03-23T17:31:59.643Z,59.27
2019-03-23T17:34:30.917Z,57.88
2019-03-23T17:37:02.264Z,58.38
2019-03-23T17:39:34.607Z,59.00
2019-03-23T17:42:05.997Z,58.48
2019-03-23T17:44:37.533Z,58.78
2019-03-23T17:47:08.849Z,58.73
2019-03-23T17:49:40.118Z,58.13
2019-03-23T17:52:11.440Z,58.15
2019-03-23T17:54:43.225Z,57.75
2019-03-23T17:57:14.521Z,57.17
2019-03-23T17:59:46.294Z,59.35
2019-03-23T18:02:17.648Z,58.68
2019-03-23T18:04:48.956Z,59.58
2019-03-23T18:07:20.234Z,59.10
2019-03-23T18:09:52.412Z,58.98
2019-03-23T18:12:23.794Z,59.53
2019-03-23T18:14:55.063Z,58.17
2019-03-23T18:17:26.510Z,58.57
2019-03-23T18:19:58.119Z,59.65
2019-03-23T18:22:29.862Z,58.67
2019-03-23T18:25:01.223Z,59.40
2019-03-23T18:27:32.553Z,60.47
2019-03-23T18:30:04.657Z,60.00
2019-03-23T18:32:35.986Z,60.30
2019-03-23T18:35:07.443Z,59.45
2019-03-23T18:37:38.751Z,60.47
2019-03-23T18:40:10.186Z,60.10
2019-03-23T18:42:41.521Z,60.17
2019-03-23T18:45:12.965Z,61.83
2019-03-23T18:47:44.269Z,60.12
2019-03-23T18:50:15.539Z,61.45
2019-03-23T18:52:46.850Z,60.05
2019-03-23T18:55:18.489Z,59.97
2019-03-23T18:57:49.936Z,59.42
2019-03-23T19:00:32.913Z,58.07
2019-03-23T19:03:04.966Z,59.50
2019-03-23T19:05:36.557Z,58.33
2019-03-23T19:08:08.273Z,59.48
2019-03-23T19:10:39.552Z,60.10
2019-03-23T19:13:11.033Z,58.00
2019-03-23T19:15:43.568Z,56.65
2019-03-23T19:18:14.859Z,57.60
2019-03-23T19:20:46.941Z,57.15
2019-03-23T19:23:18.359Z,56.50
2019-03-23T19:25:49.660Z,57.57
2019-03-23T19:28:21.355Z,56.48
2019-03-23T19:30:52.653Z,58.17
2019-03-23T19:33:24.307Z,58.08
2019-03-23T19:35:55.638Z,57.48
2019-03-23T19:38:27.262Z,57.98
2019-03-23T19:40:58.613Z,57.38
2019-03-23T19:43:29.890Z,57.93
2019-03-23T19:46:01.172Z,58.05
2019-03-23T19:48:32.487Z,58.92
2019-03-23T19:51:03.944Z,60.95
2019-03-23T19:53:36.391Z,62.20
2019-03-23T19:56:08.392Z,62.38
2019-03-23T19:58:39.770Z,61.23
2019-03-23T20:01:12.006Z,61.88
2019-03-23T20:03:43.297Z,62.38
2019-03-23T20:06:14.664Z,63.65
2019-03-23T20:08:46.017Z,64.70
2019-03-23T20:11:17.290Z,64.20
2019-03-23T20:13:58.256Z,65.45
2019-03-23T20:16:21.704Z,65.22
2019-03-23T20:18:53.370Z,65.08
2019-03-23T20:21:25.327Z,64.40
2019-03-23T20:23:56.673Z,61.95
2019-03-23T20:26:28.281Z,62.67
2019-03-23T20:29:00.222Z,60.05
2019-03-23T20:31:31.541Z,58.73
2019-03-23T20:34:02.837Z,55.45
2019-03-23T20:36:34.231Z,52.85
2019-03-23T20:39:06.974Z,49.10
2019-03-23T20:41:40.177Z,51.18
2019-03-23T20:44:11.465Z,47.20
2019-03-23T20:46:42.806Z,46.35
2019-03-23T20:49:14.266Z,39.33
2019-03-23T20:51:45.977Z,35.08
2019-03-23T20:54:17.285Z,33.73
2019-03-23T20:56:48.875Z,33.35
2019-03-23T20:59:20.173Z,33.33
2019-03-23T21:01:51.535Z,33.83
2019-03-23T21:04:22.886Z,33.88
2019-03-23T21:06:54.581Z,31.90
2019-03-23T21:09:25.828Z,32.60
2019-03-23T21:11:57.501Z,31.87
2019-03-23T21:14:28.856Z,32.23
2019-03-23T21:17:00.159Z,31.52
2019-03-23T21:19:31.435Z,31.40
2019-03-23T21:22:02.767Z,30.05
2019-03-23T21:24:34.037Z,30.00
2019-03-23T21:27:05.419Z,29.85
2019-03-23T21:29:37.001Z,30.32
2019-03-23T21:32:08.313Z,28.65
2019-03-23T21:34:39.830Z,28.92
2019-03-23T21:37:11.109Z,28.42
2019-03-23T21:39:42.388Z,28.20
2019-03-23T21:42:13.707Z,29.20
2019-03-23T21:44:44.936Z,27.80
2019-03-23T21:47:17.067Z,27.70
2019-03-23T21:49:48.518Z,27.15
2019-03-23T21:52:19.829Z,27.42
2019-03-23T21:54:51.117Z,28.47
2019-03-23T21:57:23.343Z,28.62
2019-03-23T21:59:54.632Z,28.07
2019-03-23T22:02:25.919Z,27.98
2019-03-23T22:04:57.214Z,28.07
2019-03-23T22:07:29.566Z,28.67
2019-03-23T22:10:00.890Z,28.25
2019-03-23T22:12:32.527Z,28.17
2019-03-23T22:15:04.150Z,26.62
2019-03-23T22:17:36.596Z,27.50
2019-03-23T22:20:09.161Z,27.37
2019-03-23T22:22:40.433Z,26.77
2019-03-23T22:25:11.926Z,25.55
2019-03-23T22:27:43.213Z,26.20
2019-03-23T22:30:15.631Z,25.60
2019-03-23T22:32:46.943Z,25.77
2019-03-23T22:35:18.484Z,24.92
2019-03-23T22:37:49.799Z,23.47
2019-03-23T22:40:21.437Z,24.63
2019-03-23T22:42:52.873Z,24.45
2019-03-23T22:45:24.208Z,24.52
2019-03-23T22:47:55.832Z,22.85
2019-03-23T22:50:27.137Z,22.37
2019-03-23T22:52:58.404Z,21.68
2019-03-23T22:55:29.972Z,20.97
2019-03-23T22:58:01.262Z,19.90
2019-03-23T23:00:42.079Z,19.02
2019-03-23T23:03:13.849Z,19.07
2019-03-23T23:05:45.342Z,18.87
2019-03-23T23:08:16.635Z,18.45
2019-03-23T23:10:49.151Z,18.30
2019-03-23T23:13:20.493Z,18.30
2019-03-23T23:15:51.866Z,17.10
2019-03-23T23:18:23.158Z,17.02
2019-03-23T23:20:54.523Z,16.87
2019-03-23T23:23:25.916Z,16.90
2019-03-23T23:25:57.209Z,15.93
2019-03-23T23:28:28.897Z,16.57
2019-03-23T23:31:00.289Z,16.02
2019-03-23T23:33:32.221Z,16.67
2019-03-23T23:36:03.612Z,16.60
2019-03-23T23:38:34.911Z,16.87
2019-03-23T23:41:06.660Z,16.97
2019-03-23T23:43:38.253Z,16.70
2019-03-23T23:46:09.603Z,17.15
2019-03-23T23:48:50.907Z,16.32
2019-03-23T23:51:13.857Z,16.77
2019-03-23T23:53:45.203Z,16.27
2019-03-23T23:56:16.529Z,15.98
2019-03-23T23:58:47.970Z,15.32
